Aviation Digital Data Service (ADDS)

Output produced by METARs form (0054 UTC 20 April 2019)
found at http://www.aviationweather.gov/metar/data/
 
METAR text: EKRK 200050Z AUTO 33001KT 9999NDV NCD 02/M02 Q1035
Conditions at: EKRK (COPENHAGEN/ROSKI, DK) observed 0050 UTC 20 April 2019
Temperature: 2.0°C (36°F)
Dewpoint: -2.0°C (28°F) [RH = 75%]
Pressure (altimeter): 30.56 inches Hg (1035.0 mb)
Winds: from the NNW (330 degrees) at 1 MPH (1 knots; 0.5 m/s)
Visibility: missing
Ceiling: at least 12,000 feet AGL
Clouds: sky clear below 12,000 feet AGL
Weather: no significant weather observed at this time

METAR text: EKRK 200020Z AUTO 04001KT 9999NDV NCD 01/M02 Q1035
Conditions at: EKRK (COPENHAGEN/ROSKI, DK) observed 0020 UTC 20 April 2019
Temperature: 1.0°C (34°F)
Dewpoint: -2.0°C (28°F) [RH = 80%]
Pressure (altimeter): 30.56 inches Hg (1035.0 mb)
Winds: from the NE (40 degrees) at 1 MPH (1 knots; 0.5 m/s)
Visibility: missing
Ceiling: at least 12,000 feet AGL
Clouds: sky clear below 12,000 feet AGL
Weather: no significant weather observed at this time

METAR text: EKRK 192350Z AUTO 33001KT 9999NDV NCD 02/M01 Q1035
Conditions at: EKRK (COPENHAGEN/ROSKI, DK) observed 2350 UTC 19 April 2019
Temperature: 2.0°C (36°F)
Dewpoint: -1.0°C (30°F) [RH = 80%]
Pressure (altimeter): 30.56 inches Hg (1035.0 mb)
Winds: from the NNW (330 degrees) at 1 MPH (1 knots; 0.5 m/s)
Visibility: missing
Ceiling: at least 12,000 feet AGL
Clouds: sky clear below 12,000 feet AGL
Weather: no significant weather observed at this time

METAR text: EKRK 192320Z AUTO 00000KT 9999NDV NCD 03/M01 Q1035
Conditions at: EKRK (COPENHAGEN/ROSKI, DK) observed 2320 UTC 19 April 2019
Temperature: 3.0°C (37°F)
Dewpoint: -1.0°C (30°F) [RH = 75%]
Pressure (altimeter): 30.56 inches Hg (1035.0 mb)
Winds: calm
Visibility: missing
Ceiling: at least 12,000 feet AGL
Clouds: sky clear below 12,000 feet AGL
Weather: no significant weather observed at this time

METAR text: EKRK 192250Z AUTO 10002KT 9999NDV NCD 02/M02 Q1035
Conditions at: EKRK (COPENHAGEN/ROSKI, DK) observed 2250 UTC 19 April 2019
Temperature: 2.0°C (36°F)
Dewpoint: -2.0°C (28°F) [RH = 75%]
Pressure (altimeter): 30.56 inches Hg (1035.0 mb)
Winds: from the E (100 degrees) at 2 MPH (2 knots; 1.0 m/s)
Visibility: missing
Ceiling: at least 12,000 feet AGL
Clouds: sky clear below 12,000 feet AGL
Weather: no significant weather observed at this time

METAR text: EKRK 192220Z AUTO 09001KT 9999NDV NCD 02/M02 Q1036
Conditions at: EKRK (COPENHAGEN/ROSKI, DK) observed 2220 UTC 19 April 2019
Temperature: 2.0°C (36°F)
Dewpoint: -2.0°C (28°F) [RH = 75%]
Pressure (altimeter): 30.59 inches Hg (1036.0 mb)
Winds: from the E (90 degrees) at 1 MPH (1 knots; 0.5 m/s)
Visibility: missing
Ceiling: at least 12,000 feet AGL
Clouds: sky clear below 12,000 feet AGL
Weather: no significant weather observed at this time

METAR text: EKRK 192150Z AUTO 09002KT 9999NDV NCD 03/M01 Q1036
Conditions at: EKRK (COPENHAGEN/ROSKI, DK) observed 2150 UTC 19 April 2019
Temperature: 3.0°C (37°F)
Dewpoint: -1.0°C (30°F) [RH = 75%]
Pressure (altimeter): 30.59 inches Hg (1036.0 mb)
Winds: from the E (90 degrees) at 2 MPH (2 knots; 1.0 m/s)
Visibility: missing
Ceiling: at least 12,000 feet AGL
Clouds: sky clear below 12,000 feet AGL
Weather: no significant weather observed at this time

METAR text: EKRK 192120Z AUTO 06002KT 9999NDV NCD 06/M01 Q1036
Conditions at: EKRK (COPENHAGEN/ROSKI, DK) observed 2120 UTC 19 April 2019
Temperature: 6.0°C (43°F)
Dewpoint: -1.0°C (30°F) [RH = 61%]
Pressure (altimeter): 30.59 inches Hg (1036.0 mb)
Winds: from the ENE (60 degrees) at 2 MPH (2 knots; 1.0 m/s)
Visibility: missing
Ceiling: at least 12,000 feet AGL
Clouds: sky clear below 12,000 feet AGL
Weather: no significant weather observed at this time

METAR text: EKRK 192050Z AUTO 00000KT 9999NDV NCD 07/M01 Q1035
Conditions at: EKRK (COPENHAGEN/ROSKI, DK) observed 2050 UTC 19 April 2019
Temperature: 7.0°C (45°F)
Dewpoint: -1.0°C (30°F) [RH = 57%]
Pressure (altimeter): 30.56 inches Hg (1035.0 mb)
Winds: calm
Visibility: missing
Ceiling: at least 12,000 feet AGL
Clouds: sky clear below 12,000 feet AGL
Weather: no significant weather observed at this time

METAR text: EKRK 192020Z AUTO 00000KT 9999NDV NCD 05/M01 Q1035
Conditions at: EKRK (COPENHAGEN/ROSKI, DK) observed 2020 UTC 19 April 2019
Temperature: 5.0°C (41°F)
Dewpoint: -1.0°C (30°F) [RH = 65%]
Pressure (altimeter): 30.56 inches Hg (1035.0 mb)
Winds: calm
Visibility: missing
Ceiling: at least 12,000 feet AGL
Clouds: sky clear below 12,000 feet AGL
Weather: no significant weather observed at this time

METAR text: EKRK 191950Z AUTO 16001KT 9999NDV NCD 07/M00 Q1035
Conditions at: EKRK (COPENHAGEN/ROSKI, DK) observed 1950 UTC 19 April 2019
Temperature: 7.0°C (45°F)
Dewpoint: 0.0°C (32°F) [RH = 61%]
Pressure (altimeter): 30.56 inches Hg (1035.0 mb)
Winds: from the SSE (160 degrees) at 1 MPH (1 knots; 0.5 m/s)
Visibility: missing
Ceiling: at least 12,000 feet AGL
Clouds: sky clear below 12,000 feet AGL
Weather: no significant weather observed at this time

METAR text: EKRK 191920Z AUTO 15003KT 9999NDV NCD 08/M00 Q1035
Conditions at: EKRK (COPENHAGEN/ROSKI, DK) observed 1920 UTC 19 April 2019
Temperature: 8.0°C (46°F)
Dewpoint: 0.0°C (32°F) [RH = 57%]
Pressure (altimeter): 30.56 inches Hg (1035.0 mb)
Winds: from the SSE (150 degrees) at 3 MPH (3 knots; 1.5 m/s)
Visibility: missing
Ceiling: at least 12,000 feet AGL
Clouds: sky clear below 12,000 feet AGL
Weather: no significant weather observed at this time

METAR text: EKRK 191850Z AUTO 12006KT 9999NDV NCD 07/01 Q1035
Conditions at: EKRK (COPENHAGEN/ROSKI, DK) observed 1850 UTC 19 April 2019
Temperature: 7.0°C (45°F)
Dewpoint: 1.0°C (34°F) [RH = 66%]
Pressure (altimeter): 30.56 inches Hg (1035.0 mb)
Winds: from the ESE (120 degrees) at 7 MPH (6 knots; 3.1 m/s)
Visibility: missing
Ceiling: at least 12,000 feet AGL
Clouds: sky clear below 12,000 feet AGL
Weather: no significant weather observed at this time

METAR text: EKRK 191820Z AUTO 12005KT 9999NDV NCD 08/01 Q1035
Conditions at: EKRK (COPENHAGEN/ROSKI, DK) observed 1820 UTC 19 April 2019
Temperature: 8.0°C (46°F)
Dewpoint: 1.0°C (34°F) [RH = 61%]
Pressure (altimeter): 30.56 inches Hg (1035.0 mb)
Winds: from the ESE (120 degrees) at 6 MPH (5 knots; 2.6 m/s)
Visibility: missing
Ceiling: at least 12,000 feet AGL
Clouds: sky clear below 12,000 feet AGL
Weather: no significant weather observed at this time

METAR text: EKRK 191750Z AUTO 12005KT 9999NDV NCD 09/02 Q1035
Conditions at: EKRK (COPENHAGEN/ROSKI, DK) observed 1750 UTC 19 April 2019
Temperature: 9.0°C (48°F)
Dewpoint: 2.0°C (36°F) [RH = 61%]
Pressure (altimeter): 30.56 inches Hg (1035.0 mb)
Winds: from the ESE (120 degrees) at 6 MPH (5 knots; 2.6 m/s)
Visibility: missing
Ceiling: at least 12,000 feet AGL
Clouds: sky clear below 12,000 feet AGL
Weather: no significant weather observed at this time

METAR text: EKRK 191720Z AUTO 13005KT 9999NDV NCD 11/01 Q1035
Conditions at: EKRK (COPENHAGEN/ROSKI, DK) observed 1720 UTC 19 April 2019
Temperature: 11.0°C (52°F)
Dewpoint: 1.0°C (34°F) [RH = 50%]
Pressure (altimeter): 30.56 inches Hg (1035.0 mb)
Winds: from the SE (130 degrees) at 6 MPH (5 knots; 2.6 m/s)
Visibility: missing
Ceiling: at least 12,000 feet AGL
Clouds: sky clear below 12,000 feet AGL
Weather: no significant weather observed at this time

METAR text: EKRK 191650Z AUTO 14004KT 9999NDV NCD 12/01 Q1035
Conditions at: EKRK (COPENHAGEN/ROSKI, DK) observed 1650 UTC 19 April 2019
Temperature: 12.0°C (54°F)
Dewpoint: 1.0°C (34°F) [RH = 47%]
Pressure (altimeter): 30.56 inches Hg (1035.0 mb)
Winds: from the SE (140 degrees) at 5 MPH (4 knots; 2.1 m/s)
Visibility: missing
Ceiling: at least 12,000 feet AGL
Clouds: sky clear below 12,000 feet AGL
Weather: no significant weather observed at this time

METAR text: EKRK 191620Z AUTO 14005KT 9999NDV NCD 14/00 Q1035
Conditions at: EKRK (COPENHAGEN/ROSKI, DK) observed 1620 UTC 19 April 2019
Temperature: 14.0°C (57°F)
Dewpoint: 0.0°C (32°F) [RH = 38%]
Pressure (altimeter): 30.56 inches Hg (1035.0 mb)
Winds: from the SE (140 degrees) at 6 MPH (5 knots; 2.6 m/s)
Visibility: missing
Ceiling: at least 12,000 feet AGL
Clouds: sky clear below 12,000 feet AGL
Weather: no significant weather observed at this time

METAR text: EKRK 191550Z AUTO 15005KT 9999NDV NCD 14/M01 Q1035
Conditions at: EKRK (COPENHAGEN/ROSKI, DK) observed 1550 UTC 19 April 2019
Temperature: 14.0°C (57°F)
Dewpoint: -1.0°C (30°F) [RH = 36%]
Pressure (altimeter): 30.56 inches Hg (1035.0 mb)
Winds: from the SSE (150 degrees) at 6 MPH (5 knots; 2.6 m/s)
Visibility: missing
Ceiling: at least 12,000 feet AGL
Clouds: sky clear below 12,000 feet AGL
Weather: no significant weather observed at this time

METAR text: EKRK 191520Z AUTO 15006KT 9999NDV NCD 14/M01 Q1035
Conditions at: EKRK (COPENHAGEN/ROSKI, DK) observed 1520 UTC 19 April 2019
Temperature: 14.0°C (57°F)
Dewpoint: -1.0°C (30°F) [RH = 36%]
Pressure (altimeter): 30.56 inches Hg (1035.0 mb)
Winds: from the SSE (150 degrees) at 7 MPH (6 knots; 3.1 m/s)
Visibility: missing
Ceiling: at least 12,000 feet AGL
Clouds: sky clear below 12,000 feet AGL
Weather: no significant weather observed at this time

METAR text: EKRK 191450Z AUTO 15006KT 9999NDV NCD 15/00 Q1036
Conditions at: EKRK (COPENHAGEN/ROSKI, DK) observed 1450 UTC 19 April 2019
Temperature: 15.0°C (59°F)
Dewpoint: 0.0°C (32°F) [RH = 36%]
Pressure (altimeter): 30.59 inches Hg (1036.0 mb)
Winds: from the SSE (150 degrees) at 7 MPH (6 knots; 3.1 m/s)
Visibility: missing
Ceiling: at least 12,000 feet AGL
Clouds: sky clear below 12,000 feet AGL
Weather: no significant weather observed at this time

METAR text: EKRK 191420Z AUTO 14006KT 9999NDV NCD 14/M01 Q1036
Conditions at: EKRK (COPENHAGEN/ROSKI, DK) observed 1420 UTC 19 April 2019
Temperature: 14.0°C (57°F)
Dewpoint: -1.0°C (30°F) [RH = 36%]
Pressure (altimeter): 30.59 inches Hg (1036.0 mb)
Winds: from the SE (140 degrees) at 7 MPH (6 knots; 3.1 m/s)
Visibility: missing
Ceiling: at least 12,000 feet AGL
Clouds: sky clear below 12,000 feet AGL
Weather: no significant weather observed at this time

METAR text: EKRK 191350Z AUTO 15007KT 110V170 9999NDV NCD 15/00 Q1036
Conditions at: EKRK (COPENHAGEN/ROSKI, DK) observed 1350 UTC 19 April 2019
Temperature: 15.0°C (59°F)
Dewpoint: 0.0°C (32°F) [RH = 36%]
Pressure (altimeter): 30.59 inches Hg (1036.0 mb)
Winds: from the SSE (150 degrees) at 8 MPH (7 knots; 3.6 m/s)
Visibility: missing
Ceiling: at least 12,000 feet AGL
Clouds: sky clear below 12,000 feet AGL
Weather: no significant weather observed at this time

METAR text: EKRK 191320Z AUTO 14007KT 9999NDV NCD 14/M03 Q1036
Conditions at: EKRK (COPENHAGEN/ROSKI, DK) observed 1320 UTC 19 April 2019
Temperature: 14.0°C (57°F)
Dewpoint: -3.0°C (27°F) [RH = 31%]
Pressure (altimeter): 30.59 inches Hg (1036.0 mb)
Winds: from the SE (140 degrees) at 8 MPH (7 knots; 3.6 m/s)
Visibility: missing
Ceiling: at least 12,000 feet AGL
Clouds: sky clear below 12,000 feet AGL
Weather: no significant weather observed at this time

METAR text: EKRK 191250Z AUTO 14007KT 110V180 9999NDV NCD 15/01 Q1037
Conditions at: EKRK (COPENHAGEN/ROSKI, DK) observed 1250 UTC 19 April 2019
Temperature: 15.0°C (59°F)
Dewpoint: 1.0°C (34°F) [RH = 39%]
Pressure (altimeter): 30.62 inches Hg (1037.0 mb)
Winds: from the SE (140 degrees) at 8 MPH (7 knots; 3.6 m/s)
Visibility: missing
Ceiling: at least 12,000 feet AGL
Clouds: sky clear below 12,000 feet AGL
Weather: no significant weather observed at this time

METAR text: EKRK 191220Z AUTO 14006KT 100V170 9999NDV NCD 14/M02 Q1037
Conditions at: EKRK (COPENHAGEN/ROSKI, DK) observed 1220 UTC 19 April 2019
Temperature: 14.0°C (57°F)
Dewpoint: -2.0°C (28°F) [RH = 33%]
Pressure (altimeter): 30.62 inches Hg (1037.0 mb)
Winds: from the SE (140 degrees) at 7 MPH (6 knots; 3.1 m/s)
Visibility: missing
Ceiling: at least 12,000 feet AGL
Clouds: sky clear below 12,000 feet AGL
Weather: no significant weather observed at this time

METAR text: EKRK 191150Z AUTO 13005KT 100V170 9999NDV NCD 14/M00 Q1037
Conditions at: EKRK (COPENHAGEN/ROSKI, DK) observed 1150 UTC 19 April 2019
Temperature: 14.0°C (57°F)
Dewpoint: 0.0°C (32°F) [RH = 38%]
Pressure (altimeter): 30.62 inches Hg (1037.0 mb)
Winds: from the SE (130 degrees) at 6 MPH (5 knots; 2.6 m/s)
Visibility: missing
Ceiling: at least 12,000 feet AGL
Clouds: sky clear below 12,000 feet AGL
Weather: no significant weather observed at this time

METAR text: EKRK 191120Z AUTO 12004KT 090V150 9999NDV NCD 14/M01 Q1037
Conditions at: EKRK (COPENHAGEN/ROSKI, DK) observed 1120 UTC 19 April 2019
Temperature: 14.0°C (57°F)
Dewpoint: -1.0°C (30°F) [RH = 36%]
Pressure (altimeter): 30.62 inches Hg (1037.0 mb)
Winds: from the ESE (120 degrees) at 5 MPH (4 knots; 2.1 m/s)
Visibility: missing
Ceiling: at least 12,000 feet AGL
Clouds: sky clear below 12,000 feet AGL
Weather: no significant weather observed at this time

METAR text: EKRK 191050Z AUTO 13005KT 090V180 9999NDV NCD 13/M01 Q1037
Conditions at: EKRK (COPENHAGEN/ROSKI, DK) observed 1050 UTC 19 April 2019
Temperature: 13.0°C (55°F)
Dewpoint: -1.0°C (30°F) [RH = 38%]
Pressure (altimeter): 30.62 inches Hg (1037.0 mb)
Winds: from the SE (130 degrees) at 6 MPH (5 knots; 2.6 m/s)
Visibility: missing
Ceiling: at least 12,000 feet AGL
Clouds: sky clear below 12,000 feet AGL
Weather: no significant weather observed at this time

METAR text: EKRK 191020Z AUTO 13006KT 100V160 9999NDV NCD 13/M02 Q1037
Conditions at: EKRK (COPENHAGEN/ROSKI, DK) observed 1020 UTC 19 April 2019
Temperature: 13.0°C (55°F)
Dewpoint: -2.0°C (28°F) [RH = 35%]
Pressure (altimeter): 30.62 inches Hg (1037.0 mb)
Winds: from the SE (130 degrees) at 7 MPH (6 knots; 3.1 m/s)
Visibility: missing
Ceiling: at least 12,000 feet AGL
Clouds: sky clear below 12,000 feet AGL
Weather: no significant weather observed at this time

METAR text: EKRK 190950Z AUTO 13006KT 100V170 9999NDV NCD 12/M02 Q1038
Conditions at: EKRK (COPENHAGEN/ROSKI, DK) observed 0950 UTC 19 April 2019
Temperature: 12.0°C (54°F)
Dewpoint: -2.0°C (28°F) [RH = 38%]
Pressure (altimeter): 30.65 inches Hg (1038.0 mb)
Winds: from the SE (130 degrees) at 7 MPH (6 knots; 3.1 m/s)
Visibility: missing
Ceiling: at least 12,000 feet AGL
Clouds: sky clear below 12,000 feet AGL
Weather: no significant weather observed at this time

METAR text: EKRK 190920Z AUTO 13006KT 9999NDV NCD 12/M01 Q1038
Conditions at: EKRK (COPENHAGEN/ROSKI, DK) observed 0920 UTC 19 April 2019
Temperature: 12.0°C (54°F)
Dewpoint: -1.0°C (30°F) [RH = 40%]
Pressure (altimeter): 30.65 inches Hg (1038.0 mb)
Winds: from the SE (130 degrees) at 7 MPH (6 knots; 3.1 m/s)
Visibility: missing
Ceiling: at least 12,000 feet AGL
Clouds: sky clear below 12,000 feet AGL
Weather: no significant weather observed at this time

METAR text: EKRK 190850Z AUTO 13007KT 9999NDV NCD 12/M01 Q1038
Conditions at: EKRK (COPENHAGEN/ROSKI, DK) observed 0850 UTC 19 April 2019
Temperature: 12.0°C (54°F)
Dewpoint: -1.0°C (30°F) [RH = 40%]
Pressure (altimeter): 30.65 inches Hg (1038.0 mb)
Winds: from the SE (130 degrees) at 8 MPH (7 knots; 3.6 m/s)
Visibility: missing
Ceiling: at least 12,000 feet AGL
Clouds: sky clear below 12,000 feet AGL
Weather: no significant weather observed at this time

METAR text: EKRK 190820Z AUTO 12007KT 9999NDV NCD 11/00 Q1038
Conditions at: EKRK (COPENHAGEN/ROSKI, DK) observed 0820 UTC 19 April 2019
Temperature: 11.0°C (52°F)
Dewpoint: 0.0°C (32°F) [RH = 47%]
Pressure (altimeter): 30.65 inches Hg (1038.0 mb)
Winds: from the ESE (120 degrees) at 8 MPH (7 knots; 3.6 m/s)
Visibility: missing
Ceiling: at least 12,000 feet AGL
Clouds: sky clear below 12,000 feet AGL
Weather: no significant weather observed at this time

METAR text: EKRK 190750Z AUTO 12008KT 9999NDV NCD 11/01 Q1037
Conditions at: EKRK (COPENHAGEN/ROSKI, DK) observed 0750 UTC 19 April 2019
Temperature: 11.0°C (52°F)
Dewpoint: 1.0°C (34°F) [RH = 50%]
Pressure (altimeter): 30.62 inches Hg (1037.0 mb)
Winds: from the ESE (120 degrees) at 9 MPH (8 knots; 4.1 m/s)
Visibility: missing
Ceiling: at least 12,000 feet AGL
Clouds: sky clear below 12,000 feet AGL
Weather: no significant weather observed at this time

METAR text: EKRK 190720Z AUTO 11008KT 9999NDV NCD 10/M00 Q1037
Conditions at: EKRK (COPENHAGEN/ROSKI, DK) observed 0720 UTC 19 April 2019
Temperature: 10.0°C (50°F)
Dewpoint: 0.0°C (32°F) [RH = 50%]
Pressure (altimeter): 30.62 inches Hg (1037.0 mb)
Winds: from the ESE (110 degrees) at 9 MPH (8 knots; 4.1 m/s)
Visibility: missing
Ceiling: at least 12,000 feet AGL
Clouds: sky clear below 12,000 feet AGL
Weather: no significant weather observed at this time

METAR text: EKRK 190650Z AUTO 11006KT 9999NDV NCD 10/01 Q1037
Conditions at: EKRK (COPENHAGEN/ROSKI, DK) observed 0650 UTC 19 April 2019
Temperature: 10.0°C (50°F)
Dewpoint: 1.0°C (34°F) [RH = 53%]
Pressure (altimeter): 30.62 inches Hg (1037.0 mb)
Winds: from the ESE (110 degrees) at 7 MPH (6 knots; 3.1 m/s)
Visibility: missing
Ceiling: at least 12,000 feet AGL
Clouds: sky clear below 12,000 feet AGL
Weather: no significant weather observed at this time

METAR text: EKRK 190620Z AUTO 11007KT 9999NDV NCD 08/01 Q1037
Conditions at: EKRK (COPENHAGEN/ROSKI, DK) observed 0620 UTC 19 April 2019
Temperature: 8.0°C (46°F)
Dewpoint: 1.0°C (34°F) [RH = 61%]
Pressure (altimeter): 30.62 inches Hg (1037.0 mb)
Winds: from the ESE (110 degrees) at 8 MPH (7 knots; 3.6 m/s)
Visibility: missing
Ceiling: at least 12,000 feet AGL
Clouds: sky clear below 12,000 feet AGL
Weather: no significant weather observed at this time

METAR text: EKRK 190550Z AUTO 10006KT 9999NDV NCD 07/01 Q1037
Conditions at: EKRK (COPENHAGEN/ROSKI, DK) observed 0550 UTC 19 April 2019
Temperature: 7.0°C (45°F)
Dewpoint: 1.0°C (34°F) [RH = 66%]
Pressure (altimeter): 30.62 inches Hg (1037.0 mb)
Winds: from the E (100 degrees) at 7 MPH (6 knots; 3.1 m/s)
Visibility: missing
Ceiling: at least 12,000 feet AGL
Clouds: sky clear below 12,000 feet AGL
Weather: no significant weather observed at this time

METAR text: EKRK 190520Z AUTO 08004KT 9999NDV NCD 06/00 Q1037
Conditions at: EKRK (COPENHAGEN/ROSKI, DK) observed 0520 UTC 19 April 2019
Temperature: 6.0°C (43°F)
Dewpoint: 0.0°C (32°F) [RH = 65%]
Pressure (altimeter): 30.62 inches Hg (1037.0 mb)
Winds: from the E (80 degrees) at 5 MPH (4 knots; 2.1 m/s)
Visibility: missing
Ceiling: at least 12,000 feet AGL
Clouds: sky clear below 12,000 feet AGL
Weather: no significant weather observed at this time

METAR text: EKRK 190450Z AUTO 09004KT 9999NDV NCD 05/M00 Q1037
Conditions at: EKRK (COPENHAGEN/ROSKI, DK) observed 0450 UTC 19 April 2019
Temperature: 5.0°C (41°F)
Dewpoint: 0.0°C (32°F) [RH = 70%]
Pressure (altimeter): 30.62 inches Hg (1037.0 mb)
Winds: from the E (90 degrees) at 5 MPH (4 knots; 2.1 m/s)
Visibility: missing
Ceiling: at least 12,000 feet AGL
Clouds: sky clear below 12,000 feet AGL
Weather: no significant weather observed at this time

METAR text: EKRK 190420Z AUTO 08003KT 9999NDV NCD 02/M01 Q1037
Conditions at: EKRK (COPENHAGEN/ROSKI, DK) observed 0420 UTC 19 April 2019
Temperature: 2.0°C (36°F)
Dewpoint: -1.0°C (30°F) [RH = 80%]
Pressure (altimeter): 30.62 inches Hg (1037.0 mb)
Winds: from the E (80 degrees) at 3 MPH (3 knots; 1.5 m/s)
Visibility: missing
Ceiling: at least 12,000 feet AGL
Clouds: sky clear below 12,000 feet AGL
Weather: no significant weather observed at this time

METAR text: EKRK 190350Z AUTO 07005KT 9999NDV NCD 03/M01 Q1036
Conditions at: EKRK (COPENHAGEN/ROSKI, DK) observed 0350 UTC 19 April 2019
Temperature: 3.0°C (37°F)
Dewpoint: -1.0°C (30°F) [RH = 75%]
Pressure (altimeter): 30.59 inches Hg (1036.0 mb)
Winds: from the ENE (70 degrees) at 6 MPH (5 knots; 2.6 m/s)
Visibility: missing
Ceiling: at least 12,000 feet AGL
Clouds: sky clear below 12,000 feet AGL
Weather: no significant weather observed at this time

METAR text: EKRK 190320Z AUTO 07004KT 030V100 9999NDV NCD 04/M00 Q1036
Conditions at: EKRK (COPENHAGEN/ROSKI, DK) observed 0320 UTC 19 April 2019
Temperature: 4.0°C (39°F)
Dewpoint: 0.0°C (32°F) [RH = 75%]
Pressure (altimeter): 30.59 inches Hg (1036.0 mb)
Winds: from the ENE (70 degrees) at 5 MPH (4 knots; 2.1 m/s)
Visibility: missing
Ceiling: at least 12,000 feet AGL
Clouds: sky clear below 12,000 feet AGL
Weather: no significant weather observed at this time

METAR text: EKRK 190250Z AUTO 07005KT 9999NDV NCD 04/M01 Q1036
Conditions at: EKRK (COPENHAGEN/ROSKI, DK) observed 0250 UTC 19 April 2019
Temperature: 4.0°C (39°F)
Dewpoint: -1.0°C (30°F) [RH = 70%]
Pressure (altimeter): 30.59 inches Hg (1036.0 mb)
Winds: from the ENE (70 degrees) at 6 MPH (5 knots; 2.6 m/s)
Visibility: missing
Ceiling: at least 12,000 feet AGL
Clouds: sky clear below 12,000 feet AGL
Weather: no significant weather observed at this time

METAR text: EKRK 190220Z AUTO 07003KT 9999NDV NCD 02/M02 Q1036
Conditions at: EKRK (COPENHAGEN/ROSKI, DK) observed 0220 UTC 19 April 2019
Temperature: 2.0°C (36°F)
Dewpoint: -2.0°C (28°F) [RH = 75%]
Pressure (altimeter): 30.59 inches Hg (1036.0 mb)
Winds: from the ENE (70 degrees) at 3 MPH (3 knots; 1.5 m/s)
Visibility: missing
Ceiling: at least 12,000 feet AGL
Clouds: sky clear below 12,000 feet AGL
Weather: no significant weather observed at this time

METAR text: EKRK 190150Z AUTO 08005KT 9999NDV NCD 05/M01 Q1036
Conditions at: EKRK (COPENHAGEN/ROSKI, DK) observed 0150 UTC 19 April 2019
Temperature: 5.0°C (41°F)
Dewpoint: -1.0°C (30°F) [RH = 65%]
Pressure (altimeter): 30.59 inches Hg (1036.0 mb)
Winds: from the E (80 degrees) at 6 MPH (5 knots; 2.6 m/s)
Visibility: missing
Ceiling: at least 12,000 feet AGL
Clouds: sky clear below 12,000 feet AGL
Weather: no significant weather observed at this time

METAR text: EKRK 190120Z AUTO 06004KT 040V100 9999NDV NCD 05/M00 Q1036
Conditions at: EKRK (COPENHAGEN/ROSKI, DK) observed 0120 UTC 19 April 2019
Temperature: 5.0°C (41°F)
Dewpoint: 0.0°C (32°F) [RH = 70%]
Pressure (altimeter): 30.59 inches Hg (1036.0 mb)
Winds: from the ENE (60 degrees) at 5 MPH (4 knots; 2.1 m/s)
Visibility: missing
Ceiling: at least 12,000 feet AGL
Clouds: sky clear below 12,000 feet AGL
Weather: no significant weather observed at this time

METAR text: EKRK 190050Z AUTO 06003KT 9999NDV NCD 03/M00 Q1036
Conditions at: EKRK (COPENHAGEN/ROSKI, DK) observed 0050 UTC 19 April 2019
Temperature: 3.0°C (37°F)
Dewpoint: 0.0°C (32°F) [RH = 81%]
Pressure (altimeter): 30.59 inches Hg (1036.0 mb)
Winds: from the ENE (60 degrees) at 3 MPH (3 knots; 1.5 m/s)
Visibility: missing
Ceiling: at least 12,000 feet AGL
Clouds: sky clear below 12,000 feet AGL
Weather: no significant weather observed at this time

METAR text: EKRK 190020Z AUTO 05003KT 9999NDV NCD 05/M00 Q1036
Conditions at: EKRK (COPENHAGEN/ROSKI, DK) observed 0020 UTC 19 April 2019
Temperature: 5.0°C (41°F)
Dewpoint: 0.0°C (32°F) [RH = 70%]
Pressure (altimeter): 30.59 inches Hg (1036.0 mb)
Winds: from the NE (50 degrees) at 3 MPH (3 knots; 1.5 m/s)
Visibility: missing
Ceiling: at least 12,000 feet AGL
Clouds: sky clear below 12,000 feet AGL
Weather: no significant weather observed at this time

METAR text: EKRK 182350Z AUTO 05004KT 9999NDV NCD 04/M01 Q1036
Conditions at: EKRK (COPENHAGEN/ROSKI, DK) observed 2350 UTC 18 April 2019
Temperature: 4.0°C (39°F)
Dewpoint: -1.0°C (30°F) [RH = 70%]
Pressure (altimeter): 30.59 inches Hg (1036.0 mb)
Winds: from the NE (50 degrees) at 5 MPH (4 knots; 2.1 m/s)
Visibility: missing
Ceiling: at least 12,000 feet AGL
Clouds: sky clear below 12,000 feet AGL
Weather: no significant weather observed at this time

METAR text: EKRK 182320Z AUTO 07004KT 9999NDV NCD 05/00 Q1036
Conditions at: EKRK (COPENHAGEN/ROSKI, DK) observed 2320 UTC 18 April 2019
Temperature: 5.0°C (41°F)
Dewpoint: 0.0°C (32°F) [RH = 70%]
Pressure (altimeter): 30.59 inches Hg (1036.0 mb)
Winds: from the ENE (70 degrees) at 5 MPH (4 knots; 2.1 m/s)
Visibility: missing
Ceiling: at least 12,000 feet AGL
Clouds: sky clear below 12,000 feet AGL
Weather: no significant weather observed at this time

METAR text: EKRK 182250Z AUTO 07005KT 9999NDV NCD 06/M00 Q1036
Conditions at: EKRK (COPENHAGEN/ROSKI, DK) observed 2250 UTC 18 April 2019
Temperature: 6.0°C (43°F)
Dewpoint: 0.0°C (32°F) [RH = 65%]
Pressure (altimeter): 30.59 inches Hg (1036.0 mb)
Winds: from the ENE (70 degrees) at 6 MPH (5 knots; 2.6 m/s)
Visibility: missing
Ceiling: at least 12,000 feet AGL
Clouds: sky clear below 12,000 feet AGL
Weather: no significant weather observed at this time

METAR text: EKRK 182220Z AUTO 06003KT 9999NDV NCD 07/01 Q1036
Conditions at: EKRK (COPENHAGEN/ROSKI, DK) observed 2220 UTC 18 April 2019
Temperature: 7.0°C (45°F)
Dewpoint: 1.0°C (34°F) [RH = 66%]
Pressure (altimeter): 30.59 inches Hg (1036.0 mb)
Winds: from the ENE (60 degrees) at 3 MPH (3 knots; 1.5 m/s)
Visibility: missing
Ceiling: at least 12,000 feet AGL
Clouds: sky clear below 12,000 feet AGL
Weather: no significant weather observed at this time

METAR text: EKRK 182150Z AUTO 09004KT 9999NDV NCD 07/01 Q1036
Conditions at: EKRK (COPENHAGEN/ROSKI, DK) observed 2150 UTC 18 April 2019
Temperature: 7.0°C (45°F)
Dewpoint: 1.0°C (34°F) [RH = 66%]
Pressure (altimeter): 30.59 inches Hg (1036.0 mb)
Winds: from the E (90 degrees) at 5 MPH (4 knots; 2.1 m/s)
Visibility: missing
Ceiling: at least 12,000 feet AGL
Clouds: sky clear below 12,000 feet AGL
Weather: no significant weather observed at this time

METAR text: EKRK 182120Z AUTO VRB01KT 9999NDV NCD 05/03 Q1036
Conditions at: EKRK (COPENHAGEN/ROSKI, DK) observed 2120 UTC 18 April 2019
Temperature: 5.0°C (41°F)
Dewpoint: 3.0°C (37°F) [RH = 87%]
Pressure (altimeter): 30.59 inches Hg (1036.0 mb)
Winds: variable direction winds at 1 MPH (1 knots; 0.5 m/s)
Visibility: missing
Ceiling: at least 12,000 feet AGL
Clouds: sky clear below 12,000 feet AGL
Weather: no significant weather observed at this time

METAR text: EKRK 182050Z AUTO 13001KT 9999NDV NCD 04/02 Q1036
Conditions at: EKRK (COPENHAGEN/ROSKI, DK) observed 2050 UTC 18 April 2019
Temperature: 4.0°C (39°F)
Dewpoint: 2.0°C (36°F) [RH = 87%]
Pressure (altimeter): 30.59 inches Hg (1036.0 mb)
Winds: from the SE (130 degrees) at 1 MPH (1 knots; 0.5 m/s)
Visibility: missing
Ceiling: at least 12,000 feet AGL
Clouds: sky clear below 12,000 feet AGL
Weather: no significant weather observed at this time

METAR text: EKRK 182020Z AUTO 12001KT 9999NDV NCD 07/04 Q1036
Conditions at: EKRK (COPENHAGEN/ROSKI, DK) observed 2020 UTC 18 April 2019
Temperature: 7.0°C (45°F)
Dewpoint: 4.0°C (39°F) [RH = 81%]
Pressure (altimeter): 30.59 inches Hg (1036.0 mb)
Winds: from the ESE (120 degrees) at 1 MPH (1 knots; 0.5 m/s)
Visibility: missing
Ceiling: at least 12,000 feet AGL
Clouds: sky clear below 12,000 feet AGL
Weather: no significant weather observed at this time

METAR text: EKRK 181950Z AUTO 18003KT 9999NDV NCD 06/04 Q1036
Conditions at: EKRK (COPENHAGEN/ROSKI, DK) observed 1950 UTC 18 April 2019
Temperature: 6.0°C (43°F)
Dewpoint: 4.0°C (39°F) [RH = 87%]
Pressure (altimeter): 30.59 inches Hg (1036.0 mb)
Winds: from the S (180 degrees) at 3 MPH (3 knots; 1.5 m/s)
Visibility: missing
Ceiling: at least 12,000 feet AGL
Clouds: sky clear below 12,000 feet AGL
Weather: no significant weather observed at this time

METAR text: EKRK 181920Z AUTO 00000KT 9999NDV NCD 06/03 Q1035
Conditions at: EKRK (COPENHAGEN/ROSKI, DK) observed 1920 UTC 18 April 2019
Temperature: 6.0°C (43°F)
Dewpoint: 3.0°C (37°F) [RH = 81%]
Pressure (altimeter): 30.56 inches Hg (1035.0 mb)
Winds: calm
Visibility: missing
Ceiling: at least 12,000 feet AGL
Clouds: sky clear below 12,000 feet AGL
Weather: no significant weather observed at this time

METAR text: EKRK 181850Z AUTO 12002KT 9999NDV NCD 08/04 Q1035
Conditions at: EKRK (COPENHAGEN/ROSKI, DK) observed 1850 UTC 18 April 2019
Temperature: 8.0°C (46°F)
Dewpoint: 4.0°C (39°F) [RH = 76%]
Pressure (altimeter): 30.56 inches Hg (1035.0 mb)
Winds: from the ESE (120 degrees) at 2 MPH (2 knots; 1.0 m/s)
Visibility: missing
Ceiling: at least 12,000 feet AGL
Clouds: sky clear below 12,000 feet AGL
Weather: no significant weather observed at this time

METAR text: EKRK 181820Z AUTO 15003KT 9999NDV NCD 08/04 Q1035
Conditions at: EKRK (COPENHAGEN/ROSKI, DK) observed 1820 UTC 18 April 2019
Temperature: 8.0°C (46°F)
Dewpoint: 4.0°C (39°F) [RH = 76%]
Pressure (altimeter): 30.56 inches Hg (1035.0 mb)
Winds: from the SSE (150 degrees) at 3 MPH (3 knots; 1.5 m/s)
Visibility: missing
Ceiling: at least 12,000 feet AGL
Clouds: sky clear below 12,000 feet AGL
Weather: no significant weather observed at this time

METAR text: EKRK 181750Z AUTO 14004KT 9999NDV NCD 09/04 Q1035
Conditions at: EKRK (COPENHAGEN/ROSKI, DK) observed 1750 UTC 18 April 2019
Temperature: 9.0°C (48°F)
Dewpoint: 4.0°C (39°F) [RH = 71%]
Pressure (altimeter): 30.56 inches Hg (1035.0 mb)
Winds: from the SE (140 degrees) at 5 MPH (4 knots; 2.1 m/s)
Visibility: missing
Ceiling: at least 12,000 feet AGL
Clouds: sky clear below 12,000 feet AGL
Weather: no significant weather observed at this time

METAR text: EKRK 181720Z AUTO 14005KT 9999NDV NCD 11/04 Q1034
Conditions at: EKRK (COPENHAGEN/ROSKI, DK) observed 1720 UTC 18 April 2019
Temperature: 11.0°C (52°F)
Dewpoint: 4.0°C (39°F) [RH = 62%]
Pressure (altimeter): 30.53 inches Hg (1034.0 mb)
Winds: from the SE (140 degrees) at 6 MPH (5 knots; 2.6 m/s)
Visibility: missing
Ceiling: at least 12,000 feet AGL
Clouds: sky clear below 12,000 feet AGL
Weather: no significant weather observed at this time

METAR text: EKRK 181650Z AUTO 13005KT 9999NDV NCD 11/05 Q1034
Conditions at: EKRK (COPENHAGEN/ROSKI, DK) observed 1650 UTC 18 April 2019
Temperature: 11.0°C (52°F)
Dewpoint: 5.0°C (41°F) [RH = 66%]
Pressure (altimeter): 30.53 inches Hg (1034.0 mb)
Winds: from the SE (130 degrees) at 6 MPH (5 knots; 2.6 m/s)
Visibility: missing
Ceiling: at least 12,000 feet AGL
Clouds: sky clear below 12,000 feet AGL
Weather: no significant weather observed at this time

METAR text: EKRK 181620Z AUTO 14006KT 9999NDV NCD 12/04 Q1034
Conditions at: EKRK (COPENHAGEN/ROSKI, DK) observed 1620 UTC 18 April 2019
Temperature: 12.0°C (54°F)
Dewpoint: 4.0°C (39°F) [RH = 58%]
Pressure (altimeter): 30.53 inches Hg (1034.0 mb)
Winds: from the SE (140 degrees) at 7 MPH (6 knots; 3.1 m/s)
Visibility: missing
Ceiling: at least 12,000 feet AGL
Clouds: sky clear below 12,000 feet AGL
Weather: no significant weather observed at this time

METAR text: EKRK 181550Z AUTO 13006KT 9999NDV NCD 13/05 Q1034
Conditions at: EKRK (COPENHAGEN/ROSKI, DK) observed 1550 UTC 18 April 2019
Temperature: 13.0°C (55°F)
Dewpoint: 5.0°C (41°F) [RH = 58%]
Pressure (altimeter): 30.53 inches Hg (1034.0 mb)
Winds: from the SE (130 degrees) at 7 MPH (6 knots; 3.1 m/s)
Visibility: missing
Ceiling: at least 12,000 feet AGL
Clouds: sky clear below 12,000 feet AGL
Weather: no significant weather observed at this time

METAR text: EKRK 181520Z AUTO 14007KT 9999NDV NCD 13/04 Q1034
Conditions at: EKRK (COPENHAGEN/ROSKI, DK) observed 1520 UTC 18 April 2019
Temperature: 13.0°C (55°F)
Dewpoint: 4.0°C (39°F) [RH = 54%]
Pressure (altimeter): 30.53 inches Hg (1034.0 mb)
Winds: from the SE (140 degrees) at 8 MPH (7 knots; 3.6 m/s)
Visibility: missing
Ceiling: at least 12,000 feet AGL
Clouds: sky clear below 12,000 feet AGL
Weather: no significant weather observed at this time

METAR text: EKRK 181450Z AUTO 15006KT 9999NDV NCD 14/03 Q1034
Conditions at: EKRK (COPENHAGEN/ROSKI, DK) observed 1450 UTC 18 April 2019
Temperature: 14.0°C (57°F)
Dewpoint: 3.0°C (37°F) [RH = 47%]
Pressure (altimeter): 30.53 inches Hg (1034.0 mb)
Winds: from the SSE (150 degrees) at 7 MPH (6 knots; 3.1 m/s)
Visibility: missing
Ceiling: at least 12,000 feet AGL
Clouds: sky clear below 12,000 feet AGL
Weather: no significant weather observed at this time

METAR text: EKRK 181420Z AUTO 14007KT 110V170 9999NDV NCD 15/04 Q1034
Conditions at: EKRK (COPENHAGEN/ROSKI, DK) observed 1420 UTC 18 April 2019
Temperature: 15.0°C (59°F)
Dewpoint: 4.0°C (39°F) [RH = 48%]
Pressure (altimeter): 30.53 inches Hg (1034.0 mb)
Winds: from the SE (140 degrees) at 8 MPH (7 knots; 3.6 m/s)
Visibility: missing
Ceiling: at least 12,000 feet AGL
Clouds: sky clear below 12,000 feet AGL
Weather: no significant weather observed at this time

METAR text: EKRK 181350Z AUTO 14006KT 9999NDV NCD 15/03 Q1034
Conditions at: EKRK (COPENHAGEN/ROSKI, DK) observed 1350 UTC 18 April 2019
Temperature: 15.0°C (59°F)
Dewpoint: 3.0°C (37°F) [RH = 44%]
Pressure (altimeter): 30.53 inches Hg (1034.0 mb)
Winds: from the SE (140 degrees) at 7 MPH (6 knots; 3.1 m/s)
Visibility: missing
Ceiling: at least 12,000 feet AGL
Clouds: sky clear below 12,000 feet AGL
Weather: no significant weather observed at this time

METAR text: EKRK 181320Z AUTO 12007KT 090V150 9999NDV NCD 15/01 Q1034
Conditions at: EKRK (COPENHAGEN/ROSKI, DK) observed 1320 UTC 18 April 2019
Temperature: 15.0°C (59°F)
Dewpoint: 1.0°C (34°F) [RH = 39%]
Pressure (altimeter): 30.53 inches Hg (1034.0 mb)
Winds: from the ESE (120 degrees) at 8 MPH (7 knots; 3.6 m/s)
Visibility: missing
Ceiling: at least 12,000 feet AGL
Clouds: sky clear below 12,000 feet AGL
Weather: no significant weather observed at this time

Forecast for: EKRK (COPENHAGEN/ROSKI, DK)
Text: TAF EKRK 192323Z 2000/2009 30004KT CAVOK
Forecast period: 0000 to 0900 UTC 20 April 2019
Forecast type: FROM: standard forecast or significant change
Winds: from the WNW (300 degrees) at 5 MPH (4 knots; 2.1 m/s)
Visibility: 6 or more miles 10+ km)
Ceiling: unknown
Clouds: missing
Weather: NSW  (no significant weather)